sensor_id;sensor_type;location;lat;lon;timestamp;pressure;altitude;pressure_sealevel;temperature;humidity
76114;BME280;64845;53.086;5.834;2023-03-01T00:01:07;103341.69;;;0.42;73.05
76114;BME280;64845;53.086;5.834;2023-03-01T00:03:33;103344.63;;;0.28;73.43
76114;BME280;64845;53.086;5.834;2023-03-01T00:05:59;103339.72;;;0.17;73.11
76114;BME280;64845;53.086;5.834;2023-03-01T00:08:25;103338.66;;;0.13;73.39
76114;BME280;64845;53.086;5.834;2023-03-01T00:13:27;103344.75;;;0.12;73.62
76114;BME280;64845;53.086;5.834;2023-03-01T00:15:52;103349.88;;;0.09;73.84
76114;BME280;64845;53.086;5.834;2023-03-01T00:18:18;103339.97;;;0.03;73.41
76114;BME280;64845;53.086;5.834;2023-03-01T00:20:50;103340.47;;;-0.06;73.52
76114;BME280;64845;53.086;5.834;2023-03-01T00:23:16;103327.81;;;-0.14;73.50
76114;BME280;64845;53.086;5.834;2023-03-01T00:25:42;103339.00;;;-0.19;73.53
76114;BME280;64845;53.086;5.834;2023-03-01T00:28:08;103324.16;;;-0.18;73.42
76114;BME280;64845;53.086;5.834;2023-03-01T00:30:33;103334.59;;;-0.20;73.22
76114;BME280;64845;53.086;5.834;2023-03-01T00:32:58;103333.69;;;-0.20;73.49
76114;BME280;64845;53.086;5.834;2023-03-01T00:35:24;103329.19;;;-0.23;73.57
76114;BME280;64845;53.086;5.834;2023-03-01T00:37:49;103329.09;;;-0.24;73.70
76114;BME280;64845;53.086;5.834;2023-03-01T00:40:25;103328.97;;;-0.27;73.69
76114;BME280;64845;53.086;5.834;2023-03-01T00:42:51;103325.41;;;-0.29;73.71
76114;BME280;64845;53.086;5.834;2023-03-01T00:45:16;103319.22;;;-0.30;73.72
76114;BME280;64845;53.086;5.834;2023-03-01T00:47:42;103327.03;;;-0.32;73.78
76114;BME280;64845;53.086;5.834;2023-03-01T00:50:09;103321.56;;;-0.36;73.71
76114;BME280;64845;53.086;5.834;2023-03-01T00:52:34;103328.41;;;-0.40;73.65
76114;BME280;64845;53.086;5.834;2023-03-01T00:54:59;103323.09;;;-0.41;74.04
76114;BME280;64845;53.086;5.834;2023-03-01T00:57:25;103316.94;;;-0.42;74.22
76114;BME280;64845;53.086;5.834;2023-03-01T00:59:51;103322.13;;;-0.43;73.78
76114;BME280;64845;53.086;5.834;2023-03-01T01:02:20;103315.94;;;-0.44;74.15
76114;BME280;64845;53.086;5.834;2023-03-01T01:04:46;103315.94;;;-0.44;73.84
76114;BME280;64845;53.086;5.834;2023-03-01T01:07:12;103319.34;;;-0.47;74.32
76114;BME280;64845;53.086;5.834;2023-03-01T01:09:37;103316.41;;;-0.53;73.66
76114;BME280;64845;53.086;5.834;2023-03-01T01:12:03;103323.25;;;-0.56;74.31
76114;BME280;64845;53.086;5.834;2023-03-01T01:14:29;103318.69;;;-0.61;74.05
76114;BME280;64845;53.086;5.834;2023-03-01T01:16:55;103313.44;;;-0.61;73.98
76114;BME280;64845;53.086;5.834;2023-03-01T01:19:20;103310.00;;;-0.59;74.30
76114;BME280;64845;53.086;5.834;2023-03-01T01:21:46;103317.72;;;-0.63;74.07
76114;BME280;64845;53.086;5.834;2023-03-01T01:24:13;103313.84;;;-0.71;73.99
76114;BME280;64845;53.086;5.834;2023-03-01T01:26:39;103305.50;;;-0.80;74.16
76114;BME280;64845;53.086;5.834;2023-03-01T01:29:05;103305.22;;;-0.86;73.98
76114;BME280;64845;53.086;5.834;2023-03-01T01:31:32;103310.41;;;-0.88;74.03
76114;BME280;64845;53.086;5.834;2023-03-01T01:33:59;103304.84;;;-0.94;74.13
76114;BME280;64845;53.086;5.834;2023-03-01T01:36:25;103302.06;;;-0.97;73.95
76114;BME280;64845;53.086;5.834;2023-03-01T01:38:51;103305.13;;;-1.06;74.06
76114;BME280;64845;53.086;5.834;2023-03-01T01:41:17;103302.22;;;-1.12;73.92
76114;BME280;64845;53.086;5.834;2023-03-01T01:43:46;103297.66;;;-1.16;74.14
76114;BME280;64845;53.086;5.834;2023-03-01T01:48:55;103290.28;;;-1.24;73.97
76114;BME280;64845;53.086;5.834;2023-03-01T01:51:25;103279.00;;;-1.23;73.85
76114;BME280;64845;53.086;5.834;2023-03-01T01:53:56;103279.09;;;-1.21;73.67
76114;BME280;64845;53.086;5.834;2023-03-01T01:56:24;103276.53;;;-1.19;74.20
76114;BME280;64845;53.086;5.834;2023-03-01T01:58:52;103267.91;;;-1.17;73.87
76114;BME280;64845;53.086;5.834;2023-03-01T02:01:18;103266.84;;;-1.20;74.37
76114;BME280;64845;53.086;5.834;2023-03-01T02:03:46;103264.09;;;-1.24;74.06
76114;BME280;64845;53.086;5.834;2023-03-01T02:08:45;103267.41;;;-1.28;74.02
76114;BME280;64845;53.086;5.834;2023-03-01T02:11:12;103261.19;;;-1.30;73.90
76114;BME280;64845;53.086;5.834;2023-03-01T02:13:40;103259.94;;;-1.37;73.86
76114;BME280;64845;53.086;5.834;2023-03-01T02:16:11;103252.63;;;-1.44;74.11
76114;BME280;64845;53.086;5.834;2023-03-01T02:18:40;103253.44;;;-1.45;74.37
76114;BME280;64845;53.086;5.834;2023-03-01T02:23:42;103255.16;;;-1.45;74.00
76114;BME280;64845;53.086;5.834;2023-03-01T02:26:19;103255.91;;;-1.48;74.46
76114;BME280;64845;53.086;5.834;2023-03-01T02:28:46;103254.09;;;-1.49;74.70
76114;BME280;64845;53.086;5.834;2023-03-01T02:31:16;103254.09;;;-1.49;74.48
76114;BME280;64845;53.086;5.834;2023-03-01T02:34:01;103245.28;;;-1.51;74.62
76114;BME280;64845;53.086;5.834;2023-03-01T02:36:34;103248.56;;;-1.55;74.63
76114;BME280;64845;53.086;5.834;2023-03-01T02:39:03;103250.28;;;-1.56;74.43
76114;BME280;64845;53.086;5.834;2023-03-01T02:41:34;103246.84;;;-1.55;74.39
76114;BME280;64845;53.086;5.834;2023-03-01T02:44:01;103243.91;;;-1.61;74.51
76114;BME280;64845;53.086;5.834;2023-03-01T02:46:27;103238.66;;;-1.61;74.89
76114;BME280;64845;53.086;5.834;2023-03-01T02:48:55;103235.88;;;-1.64;74.80
76114;BME280;64845;53.086;5.834;2023-03-01T02:54:29;103230.53;;;-1.67;74.50
76114;BME280;64845;53.086;5.834;2023-03-01T02:56:57;103227.81;;;-1.69;74.91
76114;BME280;64845;53.086;5.834;2023-03-01T02:59:28;103226.81;;;-1.71;74.91
76114;BME280;64845;53.086;5.834;2023-03-01T03:01:54;103218.81;;;-1.74;74.79
76114;BME280;64845;53.086;5.834;2023-03-01T03:04:20;103221.53;;;-1.72;74.75
76114;BME280;64845;53.086;5.834;2023-03-01T03:06:47;103222.41;;;-1.72;74.52
76114;BME280;64845;53.086;5.834;2023-03-01T03:09:13;103218.16;;;-1.70;74.77
76114;BME280;64845;53.086;5.834;2023-03-01T03:11:39;103215.63;;;-1.68;75.21
76114;BME280;64845;53.086;5.834;2023-03-01T03:14:09;103216.72;;;-1.63;74.76
76114;BME280;64845;53.086;5.834;2023-03-01T03:16:48;103220.44;;;-1.59;74.95
76114;BME280;64845;53.086;5.834;2023-03-01T03:19:14;103217.03;;;-1.57;75.03
76114;BME280;64845;53.086;5.834;2023-03-01T03:21:41;103215.47;;;-1.53;74.88
76114;BME280;64845;53.086;5.834;2023-03-01T03:24:07;103214.75;;;-1.50;75.38
76114;BME280;64845;53.086;5.834;2023-03-01T03:26:33;103211.31;;;-1.49;74.93
76114;BME280;64845;53.086;5.834;2023-03-01T03:28:58;103213.75;;;-1.53;75.15
76114;BME280;64845;53.086;5.834;2023-03-01T03:31:24;103206.78;;;-1.52;75.21
76114;BME280;64845;53.086;5.834;2023-03-01T03:33:49;103206.78;;;-1.52;75.29
76114;BME280;64845;53.086;5.834;2023-03-01T03:36:16;103206.78;;;-1.52;74.83
76114;BME280;64845;53.086;5.834;2023-03-01T03:38:43;103203.06;;;-1.57;75.34
76114;BME280;64845;53.086;5.834;2023-03-01T03:41:09;103199.47;;;-1.59;75.23
76114;BME280;64845;53.086;5.834;2023-03-01T03:43:36;103199.47;;;-1.59;75.10
76114;BME280;64845;53.086;5.834;2023-03-01T03:46:03;103195.94;;;-1.60;75.04
76114;BME280;64845;53.086;5.834;2023-03-01T03:48:34;103199.53;;;-1.58;75.02
76114;BME280;64845;53.086;5.834;2023-03-01T03:51:00;103200.44;;;-1.57;75.36
76114;BME280;64845;53.086;5.834;2023-03-01T03:53:27;103204.94;;;-1.55;75.56
76114;BME280;64845;53.086;5.834;2023-03-01T03:55:53;103195.41;;;-1.53;75.27
76114;BME280;64845;53.086;5.834;2023-03-01T03:58:22;103183.97;;;-1.55;75.35
76114;BME280;64845;53.086;5.834;2023-03-01T04:00:53;103183.03;;;-1.55;75.52
76114;BME280;64845;53.086;5.834;2023-03-01T04:03:21;103191.66;;;-1.58;75.07
76114;BME280;64845;53.086;5.834;2023-03-01T04:05:49;103194.22;;;-1.59;75.01
76114;BME280;64845;53.086;5.834;2023-03-01T04:08:20;103192.50;;;-1.59;75.28
76114;BME280;64845;53.086;5.834;2023-03-01T04:10:48;103194.28;;;-1.58;75.63
76114;BME280;64845;53.086;5.834;2023-03-01T04:13:16;103196.91;;;-1.58;75.50
76114;BME280;64845;53.086;5.834;2023-03-01T04:15:44;103198.72;;;-1.57;75.72
76114;BME280;64845;53.086;5.834;2023-03-01T04:18:14;103203.19;;;-1.54;75.32
76114;BME280;64845;53.086;5.834;2023-03-01T04:20:41;103195.31;;;-1.54;75.12
76114;BME280;64845;53.086;5.834;2023-03-01T04:23:10;103191.88;;;-1.53;75.19
76114;BME280;64845;53.086;5.834;2023-03-01T04:25:40;103186.75;;;-1.52;75.26
76114;BME280;64845;53.086;5.834;2023-03-01T04:28:06;103183.22;;;-1.52;75.43
76114;BME280;64845;53.086;5.834;2023-03-01T04:30:32;103175.44;;;-1.50;75.51
76114;BME280;64845;53.086;5.834;2023-03-01T04:33:08;103184.13;;;-1.52;75.15
76114;BME280;64845;53.086;5.834;2023-03-01T04:35:35;103176.31;;;-1.50;75.39
76114;BME280;64845;53.086;5.834;2023-03-01T04:38:01;103184.19;;;-1.50;75.51
76114;BME280;64845;53.086;5.834;2023-03-01T04:40:26;103190.41;;;-1.48;75.12
76114;BME280;64845;53.086;5.834;2023-03-01T04:42:52;103192.13;;;-1.48;75.71
76114;BME280;64845;53.086;5.834;2023-03-01T04:45:18;103189.41;;;-1.50;75.37
76114;BME280;64845;53.086;5.834;2023-03-01T04:47:45;103193.63;;;-1.54;75.46
76114;BME280;64845;53.086;5.834;2023-03-01T04:50:13;103187.56;;;-1.53;75.26
76114;BME280;64845;53.086;5.834;2023-03-01T04:52:39;103181.41;;;-1.53;75.27
76114;BME280;64845;53.086;5.834;2023-03-01T04:55:05;103183.16;;;-1.54;75.35
76114;BME280;64845;53.086;5.834;2023-03-01T04:57:31;103170.88;;;-1.55;75.68
76114;BME280;64845;53.086;5.834;2023-03-01T04:59:57;103180.44;;;-1.55;75.48
76114;BME280;64845;53.086;5.834;2023-03-01T05:02:22;103180.44;;;-1.55;75.22
76114;BME280;64845;53.086;5.834;2023-03-01T05:04:47;103187.34;;;-1.57;75.24
76114;BME280;64845;53.086;5.834;2023-03-01T05:07:13;103175.94;;;-1.58;75.83
76114;BME280;64845;53.086;5.834;2023-03-01T05:09:45;103174.16;;;-1.59;75.72
76114;BME280;64845;53.086;5.834;2023-03-01T05:12:10;103184.63;;;-1.59;75.64
76114;BME280;64845;53.086;5.834;2023-03-01T05:14:36;103181.03;;;-1.61;75.22
76114;BME280;64845;53.086;5.834;2023-03-01T05:17:01;103167.88;;;-1.62;75.33
76114;BME280;64845;53.086;5.834;2023-03-01T05:19:29;103157.38;;;-1.62;75.73
76114;BME280;64845;53.086;5.834;2023-03-01T05:21:56;103156.47;;;-1.63;75.38
76114;BME280;64845;53.086;5.834;2023-03-01T05:24:33;103159.91;;;-1.64;75.61
76114;BME280;64845;53.086;5.834;2023-03-01T05:26:59;103161.72;;;-1.63;75.79
76114;BME280;64845;53.086;5.834;2023-03-01T05:29:26;103158.22;;;-1.63;75.20
76114;BME280;64845;53.086;5.834;2023-03-01T05:31:56;103147.63;;;-1.65;75.83
76114;BME280;64845;53.086;5.834;2023-03-01T05:34:24;103145.84;;;-1.66;75.31
76114;BME280;64845;53.086;5.834;2023-03-01T05:36:51;103137.97;;;-1.66;75.45
76114;BME280;64845;53.086;5.834;2023-03-01T05:39:19;103130.13;;;-1.66;75.67
76114;BME280;64845;53.086;5.834;2023-03-01T05:41:46;103133.59;;;-1.67;75.54
76114;BME280;64845;53.086;5.834;2023-03-01T05:44:11;103114.28;;;-1.69;75.66
76114;BME280;64845;53.086;5.834;2023-03-01T05:46:37;103123.63;;;-1.74;75.84
76114;BME280;64845;53.086;5.834;2023-03-01T05:49:02;103119.06;;;-1.78;75.87
76114;BME280;64845;53.086;5.834;2023-03-01T05:51:29;103116.44;;;-1.78;75.34
76114;BME280;64845;53.086;5.834;2023-03-01T05:53:55;103107.69;;;-1.79;75.76
76114;BME280;64845;53.086;5.834;2023-03-01T05:56:20;103116.38;;;-1.80;75.67
76114;BME280;64845;53.086;5.834;2023-03-01T05:58:48;103114.59;;;-1.81;75.94
76114;BME280;64845;53.086;5.834;2023-03-01T06:01:14;103115.41;;;-1.82;75.42
76114;BME280;64845;53.086;5.834;2023-03-01T06:03:40;103111.88;;;-1.83;75.84
76114;BME280;64845;53.086;5.834;2023-03-01T06:06:05;103117.09;;;-1.83;75.59
76114;BME280;64845;53.086;5.834;2023-03-01T06:08:30;103114.50;;;-1.83;75.83
76114;BME280;64845;53.086;5.834;2023-03-01T06:10:56;103110.16;;;-1.82;75.70
76114;BME280;64845;53.086;5.834;2023-03-01T06:13:22;103111.03;;;-1.82;75.78
76114;BME280;64845;53.086;5.834;2023-03-01T06:15:48;103114.59;;;-1.81;75.46
76114;BME280;64845;53.086;5.834;2023-03-01T06:18:14;103116.28;;;-1.82;75.90
76114;BME280;64845;53.086;5.834;2023-03-01T06:20:39;103115.47;;;-1.80;75.83
76114;BME280;64845;53.086;5.834;2023-03-01T06:23:04;103114.50;;;-1.83;75.90
76114;BME280;64845;53.086;5.834;2023-03-01T06:25:30;103125.88;;;-1.82;75.66
76114;BME280;64845;53.086;5.834;2023-03-01T06:27:55;103123.09;;;-1.85;75.99
76114;BME280;64845;53.086;5.834;2023-03-01T06:30:23;103126.38;;;-1.89;75.63
76114;BME280;64845;53.086;5.834;2023-03-01T06:32:49;103136.78;;;-1.91;75.72
76114;BME280;64845;53.086;5.834;2023-03-01T06:35:15;103135.06;;;-1.90;76.06
76114;BME280;64845;53.086;5.834;2023-03-01T06:37:43;103128.19;;;-1.88;75.99
76114;BME280;64845;53.086;5.834;2023-03-01T06:40:10;103131.63;;;-1.89;76.18
76114;BME280;64845;53.086;5.834;2023-03-01T06:42:38;103127.31;;;-1.89;75.83
76114;BME280;64845;53.086;5.834;2023-03-01T06:45:05;103133.34;;;-1.90;75.66
76114;BME280;64845;53.086;5.834;2023-03-01T06:47:32;103135.00;;;-1.92;75.85
76114;BME280;64845;53.086;5.834;2023-03-01T06:49:58;103132.38;;;-1.92;75.75
76114;BME280;64845;53.086;5.834;2023-03-01T06:52:24;103129.44;;;-1.98;75.63
76114;BME280;64845;53.086;5.834;2023-03-01T06:54:49;103132.81;;;-2.01;76.00
76114;BME280;64845;53.086;5.834;2023-03-01T06:57:15;103141.50;;;-2.02;75.52
76114;BME280;64845;53.086;5.834;2023-03-01T06:59:40;103142.31;;;-2.03;75.73
76114;BME280;64845;53.086;5.834;2023-03-01T07:02:06;103145.75;;;-2.04;76.10
76114;BME280;64845;53.086;5.834;2023-03-01T07:04:31;103141.41;;;-2.03;75.50
76114;BME280;64845;53.086;5.834;2023-03-01T07:06:56;103147.44;;;-2.04;75.89
76114;BME280;64845;53.086;5.834;2023-03-01T07:09:23;103147.56;;;-2.03;75.33
76114;BME280;64845;53.086;5.834;2023-03-01T07:11:49;103141.50;;;-2.02;75.75
76114;BME280;64845;53.086;5.834;2023-03-01T07:14:15;103147.63;;;-2.01;76.15
76114;BME280;64845;53.086;5.834;2023-03-01T07:16:40;103147.78;;;-1.98;75.67
76114;BME280;64845;53.086;5.834;2023-03-01T07:19:06;103150.63;;;-1.93;75.73
76114;BME280;64845;53.086;5.834;2023-03-01T07:21:31;103149.88;;;-1.91;75.79
76114;BME280;64845;53.086;5.834;2023-03-01T07:23:57;103147.50;;;-1.86;75.99
76114;BME280;64845;53.086;5.834;2023-03-01T07:26:22;103150.16;;;-1.85;76.00
76114;BME280;64845;53.086;5.834;2023-03-01T07:28:47;103148.69;;;-1.79;75.64
76114;BME280;64845;53.086;5.834;2023-03-01T07:31:13;103144.50;;;-1.76;75.79
76114;BME280;64845;53.086;5.834;2023-03-01T07:33:39;103150.81;;;-1.72;76.29
76114;BME280;64845;53.086;5.834;2023-03-01T07:36:05;103148.41;;;-1.68;75.95
76114;BME280;64845;53.086;5.834;2023-03-01T07:38:31;103149.44;;;-1.64;76.31
76114;BME280;64845;53.086;5.834;2023-03-01T07:41:01;103158.28;;;-1.62;75.83
76114;BME280;64845;53.086;5.834;2023-03-01T07:43:30;103154.16;;;-1.57;76.18
76114;BME280;64845;53.086;5.834;2023-03-01T07:45:59;103155.19;;;-1.53;76.29
76114;BME280;64845;53.086;5.834;2023-03-01T07:48:25;103150.94;;;-1.51;76.19
76114;BME280;64845;53.086;5.834;2023-03-01T07:50:50;103156.34;;;-1.48;76.30
76114;BME280;64845;53.086;5.834;2023-03-01T07:53:16;103155.72;;;-1.42;76.40
76114;BME280;64845;53.086;5.834;2023-03-01T07:55:41;103154.09;;;-1.40;75.94
76114;BME280;64845;53.086;5.834;2023-03-01T07:58:07;103155.06;;;-1.38;76.18
76114;BME280;64845;53.086;5.834;2023-03-01T08:00:32;103161.44;;;-1.33;76.09
76114;BME280;64845;53.086;5.834;2023-03-01T08:03:01;103159.00;;;-1.28;76.05
76114;BME280;64845;53.086;5.834;2023-03-01T08:05:27;103155.72;;;-1.24;76.02
76114;BME280;64845;53.086;5.834;2023-03-01T08:07:53;103154.28;;;-1.17;76.54
76114;BME280;64845;53.086;5.834;2023-03-01T08:10:19;103155.41;;;-1.12;76.19
76114;BME280;64845;53.086;5.834;2023-03-01T08:12:45;103161.84;;;-1.05;76.22
76114;BME280;64845;53.086;5.834;2023-03-01T08:15:12;103152.53;;;-0.99;76.42
76114;BME280;64845;53.086;5.834;2023-03-01T08:17:37;103163.31;;;-0.93;76.22
76114;BME280;64845;53.086;5.834;2023-03-01T08:20:03;103165.38;;;-0.85;76.58
76114;BME280;64845;53.086;5.834;2023-03-01T08:22:32;103162.22;;;-0.78;76.55
76114;BME280;64845;53.086;5.834;2023-03-01T08:24:57;103174.78;;;-0.71;76.32
76114;BME280;64845;53.086;5.834;2023-03-01T08:27:23;103167.16;;;-0.65;76.72
76114;BME280;64845;53.086;5.834;2023-03-01T08:29:48;103155.22;;;-0.58;76.42
76114;BME280;64845;53.086;5.834;2023-03-01T08:32:13;103152.19;;;-0.48;76.36
76114;BME280;64845;53.086;5.834;2023-03-01T08:34:39;103148.19;;;-0.39;76.37
76114;BME280;64845;53.086;5.834;2023-03-01T08:37:04;103138.91;;;-0.31;76.41
76114;BME280;64845;53.086;5.834;2023-03-01T08:39:29;103142.00;;;-0.20;76.53
76114;BME280;64845;53.086;5.834;2023-03-01T08:41:55;103135.34;;;-0.12;76.67
76114;BME280;64845;53.086;5.834;2023-03-01T08:44:20;103132.22;;;-0.03;76.69
76114;BME280;64845;53.086;5.834;2023-03-01T08:46:46;103136.88;;;0.04;76.95
76114;BME280;64845;53.086;5.834;2023-03-01T08:49:16;103129.31;;;0.12;76.72
76114;BME280;64845;53.086;5.834;2023-03-01T08:51:43;103128.69;;;0.18;76.71
76114;BME280;64845;53.086;5.834;2023-03-01T08:54:17;103133.44;;;0.26;76.57
76114;BME280;64845;53.086;5.834;2023-03-01T08:56:43;103134.63;;;0.35;76.48
76114;BME280;64845;53.086;5.834;2023-03-01T08:59:11;103135.88;;;0.44;76.55
76114;BME280;64845;53.086;5.834;2023-03-01T09:01:37;103130.94;;;0.52;76.63
76114;BME280;64845;53.086;5.834;2023-03-01T09:04:03;103126.91;;;0.60;76.63
76114;BME280;64845;53.086;5.834;2023-03-01T09:06:33;103130.78;;;0.70;76.74
76114;BME280;64845;53.086;5.834;2023-03-01T09:08:59;103130.25;;;0.79;76.38
76114;BME280;64845;53.086;5.834;2023-03-01T09:11:25;103133.22;;;0.88;76.49
76114;BME280;64845;53.086;5.834;2023-03-01T09:13:51;103131.78;;;0.97;76.49
76114;BME280;64845;53.086;5.834;2023-03-01T09:16:18;103127.72;;;1.05;76.64
76114;BME280;64845;53.086;5.834;2023-03-01T09:18:44;103125.38;;;1.13;76.39
76114;BME280;64845;53.086;5.834;2023-03-01T09:21:13;103129.00;;;1.16;76.29
76114;BME280;64845;53.086;5.834;2023-03-01T09:23:41;103126.63;;;1.23;76.31
76114;BME280;64845;53.086;5.834;2023-03-01T09:26:09;103129.44;;;1.29;76.55
76114;BME280;64845;53.086;5.834;2023-03-01T09:28:38;103124.53;;;1.38;76.29
76114;BME280;64845;53.086;5.834;2023-03-01T09:31:05;103123.94;;;1.45;76.26
76114;BME280;64845;53.086;5.834;2023-03-01T09:33:32;103126.00;;;1.54;76.27
76114;BME280;64845;53.086;5.834;2023-03-01T09:36:02;103124.50;;;1.62;76.23
76114;BME280;64845;53.086;5.834;2023-03-01T09:38:28;103118.66;;;1.71;76.09
76114;BME280;64845;53.086;5.834;2023-03-01T09:40:54;103121.53;;;1.77;76.30
76114;BME280;64845;53.086;5.834;2023-03-01T09:43:45;103105.13;;;1.86;76.21
76114;BME280;64845;53.086;5.834;2023-03-01T09:46:13;103102.75;;;1.94;76.09
76114;BME280;64845;53.086;5.834;2023-03-01T09:48:46;103102.16;;;2.03;75.89
76114;BME280;64845;53.086;5.834;2023-03-01T09:51:18;103109.47;;;2.11;76.22
76114;BME280;64845;53.086;5.834;2023-03-01T09:53:44;103107.09;;;2.19;75.44
76114;BME280;64845;53.086;5.834;2023-03-01T09:56:19;103112.59;;;2.27;75.99
76114;BME280;64845;53.086;5.834;2023-03-01T09:58:47;103112.91;;;2.36;75.87
76114;BME280;64845;53.086;5.834;2023-03-01T10:09:21;103111.22;;;2.67;75.07
76114;BME280;64845;53.086;5.834;2023-03-01T10:11:50;103111.47;;;2.75;75.55
76114;BME280;64845;53.086;5.834;2023-03-01T10:17:08;103111.03;;;2.90;75.14
76114;BME280;64845;53.086;5.834;2023-03-01T10:19:46;103112.16;;;2.98;75.25
76114;BME280;64845;53.086;5.834;2023-03-01T10:22:21;103108.84;;;3.06;75.32
76114;BME280;64845;53.086;5.834;2023-03-01T10:24:49;103100.25;;;3.13;74.98
76114;BME280;64845;53.086;5.834;2023-03-01T10:27:24;103097.84;;;3.21;75.09
76114;BME280;64845;53.086;5.834;2023-03-01T10:32:32;103096.56;;;3.38;74.46
76114;BME280;64845;53.086;5.834;2023-03-01T10:34:57;103086.16;;;3.44;74.86
76114;BME280;64845;53.086;5.834;2023-03-01T10:37:23;103087.19;;;3.50;75.01
76114;BME280;64845;53.086;5.834;2023-03-01T10:40:00;103076.75;;;3.56;74.08
76114;BME280;64845;53.086;5.834;2023-03-01T10:42:32;103077.88;;;3.64;74.85
76114;BME280;64845;53.086;5.834;2023-03-01T10:45:15;103066.66;;;3.73;74.54
76114;BME280;64845;53.086;5.834;2023-03-01T10:47:41;103065.06;;;3.80;74.34
76114;BME280;64845;53.086;5.834;2023-03-01T10:50:20;103062.66;;;3.89;74.77
76114;BME280;64845;53.086;5.834;2023-03-01T10:52:57;103068.13;;;3.97;73.86
76114;BME280;64845;53.086;5.834;2023-03-01T11:03:27;103057.47;;;4.30;73.78
76114;BME280;64845;53.086;5.834;2023-03-01T11:05:59;103051.50;;;4.39;73.64
76114;BME280;64845;53.086;5.834;2023-03-01T11:13:55;103065.22;;;4.62;73.56
76114;BME280;64845;53.086;5.834;2023-03-01T11:24:44;103057.03;;;4.93;73.13
76114;BME280;64845;53.086;5.834;2023-03-01T11:27:34;103063.34;;;4.98;72.80
76114;BME280;64845;53.086;5.834;2023-03-01T11:30:12;103068.84;;;5.09;72.45
76114;BME280;64845;53.086;5.834;2023-03-01T11:32:44;103061.97;;;5.19;72.48
76114;BME280;64845;53.086;5.834;2023-03-01T11:35:15;103061.28;;;5.29;72.47
76114;BME280;64845;53.086;5.834;2023-03-01T11:45:56;103049.56;;;5.65;72.00
76114;BME280;64845;53.086;5.834;2023-03-01T11:51:22;103043.63;;;5.82;71.36
76114;BME280;64845;53.086;5.834;2023-03-01T11:56:44;103026.25;;;5.99;71.06
76114;BME280;64845;53.086;5.834;2023-03-01T12:02:32;103023.03;;;6.17;70.58
76114;BME280;64845;53.086;5.834;2023-03-01T12:18:52;102998.94;;;6.70;69.17
76114;BME280;64845;53.086;5.834;2023-03-01T12:21:39;102995.47;;;6.77;68.98
76114;BME280;64845;53.086;5.834;2023-03-01T12:35:33;102979.13;;;7.20;67.55
76114;BME280;64845;53.086;5.834;2023-03-01T12:46:23;102962.53;;;7.47;66.99
76114;BME280;64845;53.086;5.834;2023-03-01T12:51:34;102955.53;;;7.59;66.53
76114;BME280;64845;53.086;5.834;2023-03-01T12:54:07;102957.34;;;7.63;66.18
76114;BME280;64845;53.086;5.834;2023-03-01T12:56:37;102952.94;;;7.69;66.30
76114;BME280;64845;53.086;5.834;2023-03-01T13:12:01;102939.03;;;8.14;64.98
76114;BME280;64845;53.086;5.834;2023-03-01T13:16:58;102945.28;;;8.21;64.62
76114;BME280;64845;53.086;5.834;2023-03-01T13:19:25;102935.56;;;8.26;64.37
76114;BME280;64845;53.086;5.834;2023-03-01T13:21:53;102940.03;;;8.33;64.17
76114;BME280;64845;53.086;5.834;2023-03-01T13:24:28;102931.16;;;8.37;64.39
76114;BME280;64845;53.086;5.834;2023-03-01T13:29:47;102924.16;;;8.53;63.63
76114;BME280;64845;53.086;5.834;2023-03-01T13:32:29;102913.53;;;8.61;63.80
76114;BME280;64845;53.086;5.834;2023-03-01T13:37:42;102913.53;;;8.69;63.48
76114;BME280;64845;53.086;5.834;2023-03-01T13:42:43;102910.03;;;8.82;63.49
76114;BME280;64845;53.086;5.834;2023-03-01T13:45:49;102912.72;;;8.87;63.31
76114;BME280;64845;53.086;5.834;2023-03-01T13:48:23;102902.03;;;8.91;63.06
76114;BME280;64845;53.086;5.834;2023-03-01T13:50:54;102902.94;;;8.95;62.53
76114;BME280;64845;53.086;5.834;2023-03-01T13:53:24;102910.94;;;8.98;62.61
76114;BME280;64845;53.086;5.834;2023-03-01T13:55:55;102905.63;;;9.00;62.54
76114;BME280;64845;53.086;5.834;2023-03-01T13:58:31;102902.03;;;9.04;62.10
76114;BME280;64845;53.086;5.834;2023-03-01T14:01:03;102899.41;;;9.05;61.79
76114;BME280;64845;53.086;5.834;2023-03-01T14:03:31;102894.06;;;9.10;62.03
76114;BME280;64845;53.086;5.834;2023-03-01T14:06:18;102881.63;;;9.14;61.96
76114;BME280;64845;53.086;5.834;2023-03-01T14:08:46;102882.50;;;9.16;61.52
76114;BME280;64845;53.086;5.834;2023-03-01T14:14:14;102876.28;;;9.20;60.99
76114;BME280;64845;53.086;5.834;2023-03-01T14:19:19;102877.19;;;9.27;60.94
76114;BME280;64845;53.086;5.834;2023-03-01T14:22:41;102873.63;;;9.31;60.63
76114;BME280;64845;53.086;5.834;2023-03-01T14:24:50;102865.63;;;9.32;60.33
76114;BME280;64845;53.086;5.834;2023-03-01T14:27:16;102866.53;;;9.36;60.38
76114;BME280;64845;53.086;5.834;2023-03-01T14:29:42;102858.53;;;9.39;60.18
76114;BME280;64845;53.086;5.834;2023-03-01T14:32:15;102866.50;;;9.42;60.31
76114;BME280;64845;53.086;5.834;2023-03-01T14:34:45;102862.94;;;9.43;59.83
76114;BME280;64845;53.086;5.834;2023-03-01T14:37:32;102862.03;;;9.44;59.83
76114;BME280;64845;53.086;5.834;2023-03-01T14:39:59;102857.63;;;9.42;59.76
76114;BME280;64845;53.086;5.834;2023-03-01T14:42:28;102846.94;;;9.42;59.77
76114;BME280;64845;53.086;5.834;2023-03-01T14:44:57;102840.75;;;9.41;59.53
76114;BME280;64845;53.086;5.834;2023-03-01T14:47:32;102838.06;;;9.40;59.62
76114;BME280;64845;53.086;5.834;2023-03-01T14:52:44;102827.41;;;9.41;59.21
76114;BME280;64845;53.086;5.834;2023-03-01T14:55:22;102829.16;;;9.42;59.04
76114;BME280;64845;53.086;5.834;2023-03-01T14:57:51;102824.75;;;9.38;59.06
76114;BME280;64845;53.086;5.834;2023-03-01T15:02:51;102817.59;;;9.43;58.86
76114;BME280;64845;53.086;5.834;2023-03-01T15:05:24;102816.72;;;9.44;58.82
76114;BME280;64845;53.086;5.834;2023-03-01T15:07:51;102811.41;;;9.46;58.84
76114;BME280;64845;53.086;5.834;2023-03-01T15:10:24;102806.06;;;9.46;58.48
76114;BME280;64845;53.086;5.834;2023-03-01T15:12:50;102808.72;;;9.46;58.90
76114;BME280;64845;53.086;5.834;2023-03-01T15:15:35;102804.28;;;9.45;58.67